sensor_id;sensor_type;location;lat;lon;timestamp;P1;durP1;ratioP1;P2;durP2;ratioP2
56455;SDS011;42354;53.218;6.564;2023-04-24T00:01:46;8.35;;;5.43;;
56455;SDS011;42354;53.218;6.564;2023-04-24T00:04:11;7.07;;;5.13;;
56455;SDS011;42354;53.218;6.564;2023-04-24T00:06:39;8.93;;;5.72;;
56455;SDS011;42354;53.218;6.564;2023-04-24T00:09:07;9.23;;;6.20;;
56455;SDS011;42354;53.218;6.564;2023-04-24T00:11:35;9.50;;;6.30;;
56455;SDS011;42354;53.218;6.564;2023-04-24T00:14:01;10.60;;;7.13;;
56455;SDS011;42354;53.218;6.564;2023-04-24T00:16:26;14.70;;;8.15;;
56455;SDS011;42354;53.218;6.564;2023-04-24T00:18:52;13.60;;;8.90;;
56455;SDS011;42354;53.218;6.564;2023-04-24T00:21:17;15.30;;;9.77;;
56455;SDS011;42354;53.218;6.564;2023-04-24T00:23:43;14.82;;;9.65;;
56455;SDS011;42354;53.218;6.564;2023-04-24T00:26:09;14.52;;;9.43;;
56455;SDS011;42354;53.218;6.564;2023-04-24T00:28:35;11.25;;;8.05;;
56455;SDS011;42354;53.218;6.564;2023-04-24T00:31:00;10.48;;;7.43;;
56455;SDS011;42354;53.218;6.564;2023-04-24T00:33:26;13.50;;;7.90;;
56455;SDS011;42354;53.218;6.564;2023-04-24T00:35:51;11.57;;;7.20;;
56455;SDS011;42354;53.218;6.564;2023-04-24T00:38:16;11.82;;;6.95;;
56455;SDS011;42354;53.218;6.564;2023-04-24T00:40:42;6.30;;;3.35;;
56455;SDS011;42354;53.218;6.564;2023-04-24T00:43:08;4.60;;;2.92;;
56455;SDS011;42354;53.218;6.564;2023-04-24T00:45:33;4.82;;;2.33;;
56455;SDS011;42354;53.218;6.564;2023-04-24T00:47:59;3.63;;;1.80;;
56455;SDS011;42354;53.218;6.564;2023-04-24T00:50:25;2.85;;;1.83;;
56455;SDS011;42354;53.218;6.564;2023-04-24T00:52:51;1.98;;;1.50;;
56455;SDS011;42354;53.218;6.564;2023-04-24T00:55:18;1.80;;;1.20;;
56455;SDS011;42354;53.218;6.564;2023-04-24T00:57:44;1.98;;;1.48;;
56455;SDS011;42354;53.218;6.564;2023-04-24T01:00:10;4.05;;;1.20;;
56455;SDS011;42354;53.218;6.564;2023-04-24T01:02:37;2.25;;;1.40;;
56455;SDS011;42354;53.218;6.564;2023-04-24T01:05:09;1.57;;;1.20;;
56455;SDS011;42354;53.218;6.564;2023-04-24T01:07:34;1.85;;;1.38;;
56455;SDS011;42354;53.218;6.564;2023-04-24T01:10:02;3.15;;;1.20;;
56455;SDS011;42354;53.218;6.564;2023-04-24T01:12:28;1.50;;;1.20;;
56455;SDS011;42354;53.218;6.564;2023-04-24T01:14:54;1.88;;;1.20;;
56455;SDS011;42354;53.218;6.564;2023-04-24T01:17:21;1.48;;;1.10;;
56455;SDS011;42354;53.218;6.564;2023-04-24T01:19:47;1.77;;;1.30;;
56455;SDS011;42354;53.218;6.564;2023-04-24T01:22:13;4.47;;;1.45;;
56455;SDS011;42354;53.218;6.564;2023-04-24T01:24:39;1.88;;;1.48;;
56455;SDS011;42354;53.218;6.564;2023-04-24T01:27:05;3.63;;;1.30;;
56455;SDS011;42354;53.218;6.564;2023-04-24T01:29:31;3.10;;;1.50;;
56455;SDS011;42354;53.218;6.564;2023-04-24T01:31:57;1.63;;;1.40;;
56455;SDS011;42354;53.218;6.564;2023-04-24T01:34:23;1.98;;;1.48;;
56455;SDS011;42354;53.218;6.564;2023-04-24T01:36:50;1.77;;;1.52;;
56455;SDS011;42354;53.218;6.564;2023-04-24T01:39:15;1.92;;;1.52;;
56455;SDS011;42354;53.218;6.564;2023-04-24T01:41:41;3.38;;;1.73;;
56455;SDS011;42354;53.218;6.564;2023-04-24T01:44:07;1.98;;;1.60;;
56455;SDS011;42354;53.218;6.564;2023-04-24T01:46:32;2.90;;;1.90;;
56455;SDS011;42354;53.218;6.564;2023-04-24T01:49:00;3.70;;;1.77;;
56455;SDS011;42354;53.218;6.564;2023-04-24T01:51:26;3.25;;;2.20;;
56455;SDS011;42354;53.218;6.564;2023-04-24T01:53:52;3.05;;;2.20;;
56455;SDS011;42354;53.218;6.564;2023-04-24T01:56:19;2.97;;;1.90;;
56455;SDS011;42354;53.218;6.564;2023-04-24T01:58:45;2.90;;;2.25;;
56455;SDS011;42354;53.218;6.564;2023-04-24T02:01:15;2.83;;;2.53;;
56455;SDS011;42354;53.218;6.564;2023-04-24T02:03:43;3.40;;;2.83;;
56455;SDS011;42354;53.218;6.564;2023-04-24T02:06:08;4.85;;;2.83;;
56455;SDS011;42354;53.218;6.564;2023-04-24T02:08:34;5.45;;;3.65;;
56455;SDS011;42354;53.218;6.564;2023-04-24T02:10:59;4.43;;;3.30;;
56455;SDS011;42354;53.218;6.564;2023-04-24T02:13:26;5.88;;;3.88;;
56455;SDS011;42354;53.218;6.564;2023-04-24T02:15:51;4.55;;;3.70;;
56455;SDS011;42354;53.218;6.564;2023-04-24T02:18:18;6.25;;;3.97;;
56455;SDS011;42354;53.218;6.564;2023-04-24T02:20:43;4.63;;;3.85;;
56455;SDS011;42354;53.218;6.564;2023-04-24T02:23:09;7.25;;;4.70;;
56455;SDS011;42354;53.218;6.564;2023-04-24T02:25:34;6.25;;;4.50;;
56455;SDS011;42354;53.218;6.564;2023-04-24T02:28:00;6.90;;;4.72;;
56455;SDS011;42354;53.218;6.564;2023-04-24T02:30:25;5.78;;;4.53;;
56455;SDS011;42354;53.218;6.564;2023-04-24T02:32:51;7.07;;;4.93;;
56455;SDS011;42354;53.218;6.564;2023-04-24T02:35:16;6.95;;;5.18;;
56455;SDS011;42354;53.218;6.564;2023-04-24T02:37:42;6.95;;;5.15;;
56455;SDS011;42354;53.218;6.564;2023-04-24T02:40:07;7.68;;;5.78;;
56455;SDS011;42354;53.218;6.564;2023-04-24T02:42:34;9.00;;;5.78;;
56455;SDS011;42354;53.218;6.564;2023-04-24T02:44:59;8.45;;;6.03;;
56455;SDS011;42354;53.218;6.564;2023-04-24T02:47:25;8.43;;;5.90;;
56455;SDS011;42354;53.218;6.564;2023-04-24T02:49:50;9.65;;;6.97;;
56455;SDS011;42354;53.218;6.564;2023-04-24T02:52:15;7.85;;;5.97;;
56455;SDS011;42354;53.218;6.564;2023-04-24T02:54:41;9.27;;;6.65;;
56455;SDS011;42354;53.218;6.564;2023-04-24T02:57:07;10.70;;;6.80;;
56455;SDS011;42354;53.218;6.564;2023-04-24T02:59:32;9.63;;;6.65;;
56455;SDS011;42354;53.218;6.564;2023-04-24T03:01:58;9.95;;;7.10;;
56455;SDS011;42354;53.218;6.564;2023-04-24T03:04:23;9.82;;;6.75;;
56455;SDS011;42354;53.218;6.564;2023-04-24T03:06:49;9.98;;;6.75;;
56455;SDS011;42354;53.218;6.564;2023-04-24T03:09:16;11.60;;;7.05;;
56455;SDS011;42354;53.218;6.564;2023-04-24T03:11:42;9.82;;;7.00;;
56455;SDS011;42354;53.218;6.564;2023-04-24T03:14:07;10.40;;;7.45;;
56455;SDS011;42354;53.218;6.564;2023-04-24T03:16:32;10.00;;;7.40;;
56455;SDS011;42354;53.218;6.564;2023-04-24T03:18:58;10.63;;;7.35;;
56455;SDS011;42354;53.218;6.564;2023-04-24T03:21:23;12.57;;;8.27;;
56455;SDS011;42354;53.218;6.564;2023-04-24T03:23:48;17.73;;;8.50;;
56455;SDS011;42354;53.218;6.564;2023-04-24T03:26:14;12.55;;;8.73;;
56455;SDS011;42354;53.218;6.564;2023-04-24T03:28:39;14.55;;;8.88;;
56455;SDS011;42354;53.218;6.564;2023-04-24T03:31:07;12.48;;;8.50;;
56455;SDS011;42354;53.218;6.564;2023-04-24T03:33:32;15.23;;;9.77;;
56455;SDS011;42354;53.218;6.564;2023-04-24T03:35:58;13.38;;;8.95;;
56455;SDS011;42354;53.218;6.564;2023-04-24T03:38:23;16.17;;;10.27;;
56455;SDS011;42354;53.218;6.564;2023-04-24T03:40:49;17.25;;;10.68;;
56455;SDS011;42354;53.218;6.564;2023-04-24T03:43:14;18.92;;;11.50;;
56455;SDS011;42354;53.218;6.564;2023-04-24T03:45:39;18.42;;;11.88;;
56455;SDS011;42354;53.218;6.564;2023-04-24T03:48:05;17.50;;;12.00;;
56455;SDS011;42354;53.218;6.564;2023-04-24T03:50:30;20.08;;;13.38;;
56455;SDS011;42354;53.218;6.564;2023-04-24T03:52:56;22.55;;;14.07;;
56455;SDS011;42354;53.218;6.564;2023-04-24T03:55:21;21.92;;;14.80;;
56455;SDS011;42354;53.218;6.564;2023-04-24T03:57:46;23.45;;;15.77;;
56455;SDS011;42354;53.218;6.564;2023-04-24T04:00:12;27.30;;;16.95;;
56455;SDS011;42354;53.218;6.564;2023-04-24T04:02:37;22.80;;;15.43;;
56455;SDS011;42354;53.218;6.564;2023-04-24T04:05:03;25.10;;;16.23;;
56455;SDS011;42354;53.218;6.564;2023-04-24T04:07:28;23.58;;;16.60;;
56455;SDS011;42354;53.218;6.564;2023-04-24T04:09:54;27.50;;;16.73;;
56455;SDS011;42354;53.218;6.564;2023-04-24T04:12:20;26.05;;;16.90;;
56455;SDS011;42354;53.218;6.564;2023-04-24T04:14:46;24.98;;;15.60;;
56455;SDS011;42354;53.218;6.564;2023-04-24T04:17:11;25.25;;;16.02;;
56455;SDS011;42354;53.218;6.564;2023-04-24T04:19:36;24.00;;;15.45;;
56455;SDS011;42354;53.218;6.564;2023-04-24T04:22:02;22.75;;;15.48;;
56455;SDS011;42354;53.218;6.564;2023-04-24T04:24:27;27.45;;;16.73;;
56455;SDS011;42354;53.218;6.564;2023-04-24T04:26:53;22.33;;;15.57;;
56455;SDS011;42354;53.218;6.564;2023-04-24T04:29:21;24.33;;;15.20;;
56455;SDS011;42354;53.218;6.564;2023-04-24T04:31:47;20.52;;;15.32;;
56455;SDS011;42354;53.218;6.564;2023-04-24T04:34:13;21.00;;;14.30;;
56455;SDS011;42354;53.218;6.564;2023-04-24T04:36:39;19.92;;;13.52;;
56455;SDS011;42354;53.218;6.564;2023-04-24T04:39:05;20.83;;;13.93;;
56455;SDS011;42354;53.218;6.564;2023-04-24T04:41:31;20.60;;;13.77;;
56455;SDS011;42354;53.218;6.564;2023-04-24T04:43:57;18.95;;;13.85;;
56455;SDS011;42354;53.218;6.564;2023-04-24T04:46:23;20.20;;;12.90;;
56455;SDS011;42354;53.218;6.564;2023-04-24T04:48:50;19.83;;;12.77;;
56455;SDS011;42354;53.218;6.564;2023-04-24T04:51:17;23.30;;;14.00;;
56455;SDS011;42354;53.218;6.564;2023-04-24T04:53:42;19.60;;;13.35;;
56455;SDS011;42354;53.218;6.564;2023-04-24T04:56:07;18.38;;;13.43;;
56455;SDS011;42354;53.218;6.564;2023-04-24T04:58:33;21.42;;;13.90;;
56455;SDS011;42354;53.218;6.564;2023-04-24T05:00:58;16.00;;;10.70;;
56455;SDS011;42354;53.218;6.564;2023-04-24T05:03:24;18.75;;;12.50;;
56455;SDS011;42354;53.218;6.564;2023-04-24T05:05:49;15.73;;;11.13;;
56455;SDS011;42354;53.218;6.564;2023-04-24T05:08:15;14.45;;;9.50;;
56455;SDS011;42354;53.218;6.564;2023-04-24T05:10:40;8.57;;;5.68;;
56455;SDS011;42354;53.218;6.564;2023-04-24T05:13:05;8.75;;;5.90;;
56455;SDS011;42354;53.218;6.564;2023-04-24T05:15:31;6.70;;;4.65;;
56455;SDS011;42354;53.218;6.564;2023-04-24T05:17:56;8.48;;;5.75;;
56455;SDS011;42354;53.218;6.564;2023-04-24T05:20:22;8.07;;;5.82;;
56455;SDS011;42354;53.218;6.564;2023-04-24T05:22:47;9.15;;;5.82;;
56455;SDS011;42354;53.218;6.564;2023-04-24T05:25:13;8.55;;;5.15;;
56455;SDS011;42354;53.218;6.564;2023-04-24T05:27:38;9.90;;;5.95;;
56455;SDS011;42354;53.218;6.564;2023-04-24T05:30:04;8.52;;;5.80;;
56455;SDS011;42354;53.218;6.564;2023-04-24T05:32:30;11.02;;;6.40;;
56455;SDS011;42354;53.218;6.564;2023-04-24T05:34:55;12.45;;;7.15;;
56455;SDS011;42354;53.218;6.564;2023-04-24T05:37:21;11.88;;;7.53;;
56455;SDS011;42354;53.218;6.564;2023-04-24T05:39:46;14.30;;;7.97;;
56455;SDS011;42354;53.218;6.564;2023-04-24T05:42:11;10.73;;;6.60;;
56455;SDS011;42354;53.218;6.564;2023-04-24T05:44:37;9.60;;;6.05;;
56455;SDS011;42354;53.218;6.564;2023-04-24T05:47:02;9.85;;;5.95;;
56455;SDS011;42354;53.218;6.564;2023-04-24T05:49:28;9.02;;;5.10;;
56455;SDS011;42354;53.218;6.564;2023-04-24T05:51:53;9.65;;;5.85;;
56455;SDS011;42354;53.218;6.564;2023-04-24T05:54:18;12.88;;;5.88;;
56455;SDS011;42354;53.218;6.564;2023-04-24T05:56:44;10.35;;;5.57;;
56455;SDS011;42354;53.218;6.564;2023-04-24T05:59:09;8.43;;;4.82;;
56455;SDS011;42354;53.218;6.564;2023-04-24T06:01:35;12.88;;;6.13;;
56455;SDS011;42354;53.218;6.564;2023-04-24T06:04:01;9.60;;;5.57;;
56455;SDS011;42354;53.218;6.564;2023-04-24T06:06:28;10.98;;;6.20;;
56455;SDS011;42354;53.218;6.564;2023-04-24T06:08:54;8.77;;;5.43;;
56455;SDS011;42354;53.218;6.564;2023-04-24T06:11:19;9.77;;;5.20;;
56455;SDS011;42354;53.218;6.564;2023-04-24T06:13:45;8.40;;;5.72;;
56455;SDS011;42354;53.218;6.564;2023-04-24T06:16:10;11.07;;;5.72;;
56455;SDS011;42354;53.218;6.564;2023-04-24T06:18:36;9.00;;;5.82;;
56455;SDS011;42354;53.218;6.564;2023-04-24T06:21:01;9.50;;;5.85;;
56455;SDS011;42354;53.218;6.564;2023-04-24T06:23:27;10.73;;;7.72;;
56455;SDS011;42354;53.218;6.564;2023-04-24T06:25:52;13.02;;;7.95;;
56455;SDS011;42354;53.218;6.564;2023-04-24T06:28:18;16.88;;;9.18;;
56455;SDS011;42354;53.218;6.564;2023-04-24T06:30:44;18.95;;;10.77;;
56455;SDS011;42354;53.218;6.564;2023-04-24T06:33:10;14.45;;;9.88;;
56455;SDS011;42354;53.218;6.564;2023-04-24T06:35:36;15.70;;;9.43;;
56455;SDS011;42354;53.218;6.564;2023-04-24T06:38:03;12.25;;;7.97;;
56455;SDS011;42354;53.218;6.564;2023-04-24T06:40:29;14.07;;;8.50;;
56455;SDS011;42354;53.218;6.564;2023-04-24T06:42:55;15.02;;;8.95;;
56455;SDS011;42354;53.218;6.564;2023-04-24T06:45:21;18.45;;;10.25;;
56455;SDS011;42354;53.218;6.564;2023-04-24T06:47:47;14.85;;;10.05;;
56455;SDS011;42354;53.218;6.564;2023-04-24T06:50:12;18.75;;;9.23;;
56455;SDS011;42354;53.218;6.564;2023-04-24T06:52:38;17.63;;;9.23;;
56455;SDS011;42354;53.218;6.564;2023-04-24T06:55:03;16.42;;;9.32;;
56455;SDS011;42354;53.218;6.564;2023-04-24T06:57:29;15.32;;;7.38;;
56455;SDS011;42354;53.218;6.564;2023-04-24T06:59:57;7.88;;;4.88;;
56455;SDS011;42354;53.218;6.564;2023-04-24T07:02:22;8.80;;;4.00;;
56455;SDS011;42354;53.218;6.564;2023-04-24T07:04:48;9.43;;;4.78;;
56455;SDS011;42354;53.218;6.564;2023-04-24T07:07:13;8.50;;;4.45;;
56455;SDS011;42354;53.218;6.564;2023-04-24T07:09:39;4.78;;;2.50;;
56455;SDS011;42354;53.218;6.564;2023-04-24T07:12:09;6.20;;;2.42;;
56455;SDS011;42354;53.218;6.564;2023-04-24T07:14:35;7.45;;;2.80;;
56455;SDS011;42354;53.218;6.564;2023-04-24T07:17:02;4.60;;;2.65;;
56455;SDS011;42354;53.218;6.564;2023-04-24T07:19:29;7.00;;;2.40;;
56455;SDS011;42354;53.218;6.564;2023-04-24T07:21:54;6.07;;;2.58;;
56455;SDS011;42354;53.218;6.564;2023-04-24T07:24:20;5.18;;;2.88;;
56455;SDS011;42354;53.218;6.564;2023-04-24T07:26:45;8.98;;;3.05;;
56455;SDS011;42354;53.218;6.564;2023-04-24T07:29:11;6.00;;;3.22;;
56455;SDS011;42354;53.218;6.564;2023-04-24T07:31:38;8.50;;;2.97;;
56455;SDS011;42354;53.218;6.564;2023-04-24T07:34:06;9.35;;;3.17;;
56455;SDS011;42354;53.218;6.564;2023-04-24T07:36:36;8.35;;;3.85;;
56455;SDS011;42354;53.218;6.564;2023-04-24T07:39:03;8.13;;;3.70;;
56455;SDS011;42354;53.218;6.564;2023-04-24T07:41:31;11.10;;;4.50;;
56455;SDS011;42354;53.218;6.564;2023-04-24T07:43:57;8.35;;;4.22;;
56455;SDS011;42354;53.218;6.564;2023-04-24T07:46:24;8.45;;;3.88;;
56455;SDS011;42354;53.218;6.564;2023-04-24T07:48:54;8.15;;;3.63;;
56455;SDS011;42354;53.218;6.564;2023-04-24T07:51:20;9.23;;;3.80;;
56455;SDS011;42354;53.218;6.564;2023-04-24T07:53:45;11.07;;;3.53;;
56455;SDS011;42354;53.218;6.564;2023-04-24T07:56:11;10.27;;;5.30;;
56455;SDS011;42354;53.218;6.564;2023-04-24T07:58:36;12.02;;;5.65;;
56455;SDS011;42354;53.218;6.564;2023-04-24T08:01:02;11.90;;;5.03;;
56455;SDS011;42354;53.218;6.564;2023-04-24T08:03:27;15.90;;;7.13;;
56455;SDS011;42354;53.218;6.564;2023-04-24T08:05:53;17.48;;;7.82;;
56455;SDS011;42354;53.218;6.564;2023-04-24T08:08:20;20.17;;;9.35;;
56455;SDS011;42354;53.218;6.564;2023-04-24T08:10:47;19.45;;;9.07;;
56455;SDS011;42354;53.218;6.564;2023-04-24T08:13:12;19.63;;;11.00;;
56455;SDS011;42354;53.218;6.564;2023-04-24T08:15:37;23.63;;;11.75;;
56455;SDS011;42354;53.218;6.564;2023-04-24T08:18:03;27.70;;;12.35;;
56455;SDS011;42354;53.218;6.564;2023-04-24T08:20:28;26.98;;;13.30;;
56455;SDS011;42354;53.218;6.564;2023-04-24T08:22:55;36.42;;;15.20;;
56455;SDS011;42354;53.218;6.564;2023-04-24T08:25:21;36.35;;;16.80;;
56455;SDS011;42354;53.218;6.564;2023-04-24T08:27:49;34.25;;;16.63;;
56455;SDS011;42354;53.218;6.564;2023-04-24T08:30:15;41.80;;;18.10;;
56455;SDS011;42354;53.218;6.564;2023-04-24T08:32:41;40.72;;;19.65;;
56455;SDS011;42354;53.218;6.564;2023-04-24T08:35:07;41.15;;;19.98;;
56455;SDS011;42354;53.218;6.564;2023-04-24T08:37:36;36.90;;;18.67;;
56455;SDS011;42354;53.218;6.564;2023-04-24T08:40:02;30.90;;;18.15;;
56455;SDS011;42354;53.218;6.564;2023-04-24T08:42:38;31.67;;;16.17;;
56455;SDS011;42354;53.218;6.564;2023-04-24T08:45:04;36.22;;;18.20;;
56455;SDS011;42354;53.218;6.564;2023-04-24T08:47:33;37.40;;;16.00;;
56455;SDS011;42354;53.218;6.564;2023-04-24T08:50:00;29.75;;;15.90;;
56455;SDS011;42354;53.218;6.564;2023-04-24T08:52:28;32.67;;;15.13;;
56455;SDS011;42354;53.218;6.564;2023-04-24T08:54:54;30.10;;;15.18;;
56455;SDS011;42354;53.218;6.564;2023-04-24T08:57:21;28.77;;;16.70;;
56455;SDS011;42354;53.218;6.564;2023-04-24T08:59:47;25.13;;;14.57;;
56455;SDS011;42354;53.218;6.564;2023-04-24T09:02:14;23.88;;;13.80;;
56455;SDS011;42354;53.218;6.564;2023-04-24T09:04:40;28.90;;;14.82;;
56455;SDS011;42354;53.218;6.564;2023-04-24T09:07:06;24.10;;;14.07;;
56455;SDS011;42354;53.218;6.564;2023-04-24T09:09:35;26.75;;;13.93;;
56455;SDS011;42354;53.218;6.564;2023-04-24T09:12:05;26.13;;;14.98;;
56455;SDS011;42354;53.218;6.564;2023-04-24T09:14:31;33.30;;;16.38;;
56455;SDS011;42354;53.218;6.564;2023-04-24T09:16:58;28.42;;;15.18;;
56455;SDS011;42354;53.218;6.564;2023-04-24T09:19:23;31.90;;;16.20;;
56455;SDS011;42354;53.218;6.564;2023-04-24T09:21:49;30.67;;;15.65;;
56455;SDS011;42354;53.218;6.564;2023-04-24T09:24:18;33.65;;;16.73;;
56455;SDS011;42354;53.218;6.564;2023-04-24T09:26:47;25.85;;;13.75;;
56455;SDS011;42354;53.218;6.564;2023-04-24T09:29:17;27.13;;;13.10;;
56455;SDS011;42354;53.218;6.564;2023-04-24T09:31:44;16.92;;;9.60;;
56455;SDS011;42354;53.218;6.564;2023-04-24T09:34:10;16.80;;;9.70;;
56455;SDS011;42354;53.218;6.564;2023-04-24T09:36:36;20.90;;;10.70;;
56455;SDS011;42354;53.218;6.564;2023-04-24T09:39:03;18.55;;;10.05;;
56455;SDS011;42354;53.218;6.564;2023-04-24T09:41:43;24.25;;;10.13;;
56455;SDS011;42354;53.218;6.564;2023-04-24T09:44:23;22.02;;;10.63;;
56455;SDS011;42354;53.218;6.564;2023-04-24T09:46:51;18.83;;;10.07;;
56455;SDS011;42354;53.218;6.564;2023-04-24T09:49:22;23.83;;;10.10;;
56455;SDS011;42354;53.218;6.564;2023-04-24T09:54:31;22.67;;;9.27;;
56455;SDS011;42354;53.218;6.564;2023-04-24T09:56:58;26.42;;;9.55;;
56455;SDS011;42354;53.218;6.564;2023-04-24T09:59:25;16.73;;;7.95;;
56455;SDS011;42354;53.218;6.564;2023-04-24T10:01:50;17.15;;;7.00;;
56455;SDS011;42354;53.218;6.564;2023-04-24T10:04:17;14.20;;;7.53;;
56455;SDS011;42354;53.218;6.564;2023-04-24T10:06:49;18.77;;;6.45;;
56455;SDS011;42354;53.218;6.564;2023-04-24T10:09:16;10.45;;;5.47;;
56455;SDS011;42354;53.218;6.564;2023-04-24T10:11:44;12.85;;;5.35;;
56455;SDS011;42354;53.218;6.564;2023-04-24T10:14:12;13.20;;;4.95;;
56455;SDS011;42354;53.218;6.564;2023-04-24T10:16:42;19.58;;;5.13;;
56455;SDS011;42354;53.218;6.564;2023-04-24T10:19:08;11.55;;;4.57;;
56455;SDS011;42354;53.218;6.564;2023-04-24T10:21:33;9.88;;;4.20;;
56455;SDS011;42354;53.218;6.564;2023-04-24T10:24:00;9.65;;;3.85;;
56455;SDS011;42354;53.218;6.564;2023-04-24T10:26:28;14.65;;;3.70;;
56455;SDS011;42354;53.218;6.564;2023-04-24T10:28:54;9.07;;;3.35;;
56455;SDS011;42354;53.218;6.564;2023-04-24T10:31:23;12.20;;;3.80;;
56455;SDS011;42354;53.218;6.564;2023-04-24T10:33:50;11.88;;;4.05;;
56455;SDS011;42354;53.218;6.564;2023-04-24T10:36:17;10.65;;;3.72;;
56455;SDS011;42354;53.218;6.564;2023-04-24T10:38:43;13.38;;;4.20;;
56455;SDS011;42354;53.218;6.564;2023-04-24T10:41:12;12.55;;;4.25;;
56455;SDS011;42354;53.218;6.564;2023-04-24T10:43:41;6.93;;;3.20;;
56455;SDS011;42354;53.218;6.564;2023-04-24T10:46:07;12.18;;;4.15;;
56455;SDS011;42354;53.218;6.564;2023-04-24T10:48:35;7.95;;;3.70;;
56455;SDS011;42354;53.218;6.564;2023-04-24T10:51:01;12.38;;;3.65;;
56455;SDS011;42354;53.218;6.564;2023-04-24T10:53:27;11.52;;;3.17;;
56455;SDS011;42354;53.218;6.564;2023-04-24T10:56:03;13.73;;;3.80;;
56455;SDS011;42354;53.218;6.564;2023-04-24T10:58:50;7.97;;;3.20;;
56455;SDS011;42354;53.218;6.564;2023-04-24T11:01:27;13.85;;;3.67;;
56455;SDS011;42354;53.218;6.564;2023-04-24T11:04:02;9.93;;;3.38;;
56455;SDS011;42354;53.218;6.564;2023-04-24T11:06:29;9.38;;;2.85;;
56455;SDS011;42354;53.218;6.564;2023-04-24T11:09:04;6.72;;;2.40;;
56455;SDS011;42354;53.218;6.564;2023-04-24T11:11:31;11.07;;;2.85;;
56455;SDS011;42354;53.218;6.564;2023-04-24T11:14:01;11.20;;;2.90;;
56455;SDS011;42354;53.218;6.564;2023-04-24T11:16:37;11.15;;;2.63;;
56455;SDS011;42354;53.218;6.564;2023-04-24T11:24:26;8.55;;;2.50;;
56455;SDS011;42354;53.218;6.564;2023-04-24T11:26:57;11.60;;;1.83;;
56455;SDS011;42354;53.218;6.564;2023-04-24T11:29:38;13.20;;;2.33;;
56455;SDS011;42354;53.218;6.564;2023-04-24T11:34:57;7.95;;;2.20;;
56455;SDS011;42354;53.218;6.564;2023-04-24T11:37:24;8.07;;;1.92;;
56455;SDS011;42354;53.218;6.564;2023-04-24T11:39:55;9.02;;;2.35;;
56455;SDS011;42354;53.218;6.564;2023-04-24T11:42:22;9.30;;;2.00;;
56455;SDS011;42354;53.218;6.564;2023-04-24T11:44:49;12.82;;;2.25;;
56455;SDS011;42354;53.218;6.564;2023-04-24T11:47:15;12.60;;;2.33;;
56455;SDS011;42354;53.218;6.564;2023-04-24T11:49:40;7.15;;;1.40;;
56455;SDS011;42354;53.218;6.564;2023-04-24T11:52:06;10.80;;;1.90;;
56455;SDS011;42354;53.218;6.564;2023-04-24T11:54:31;9.27;;;2.10;;
56455;SDS011;42354;53.218;6.564;2023-04-24T11:56:57;11.40;;;2.28;;
56455;SDS011;42354;53.218;6.564;2023-04-24T11:59:23;10.10;;;2.00;;
56455;SDS011;42354;53.218;6.564;2023-04-24T12:01:49;9.00;;;1.75;;
56455;SDS011;42354;53.218;6.564;2023-04-24T12:04:16;8.30;;;2.00;;
56455;SDS011;42354;53.218;6.564;2023-04-24T12:09:26;11.00;;;2.33;;
56455;SDS011;42354;53.218;6.564;2023-04-24T12:11:58;12.95;;;3.13;;
56455;SDS011;42354;53.218;6.564;2023-04-24T12:14:23;12.55;;;3.08;;
56455;SDS011;42354;53.218;6.564;2023-04-24T12:16:49;9.27;;;2.45;;
56455;SDS011;42354;53.218;6.564;2023-04-24T12:19:20;8.10;;;1.92;;
56455;SDS011;42354;53.218;6.564;2023-04-24T12:21:58;6.55;;;1.92;;
56455;SDS011;42354;53.218;6.564;2023-04-24T12:24:24;6.65;;;1.60;;
56455;SDS011;42354;53.218;6.564;2023-04-24T12:26:50;7.47;;;2.00;;
56455;SDS011;42354;53.218;6.564;2023-04-24T12:29:22;7.40;;;1.70;;
56455;SDS011;42354;53.218;6.564;2023-04-24T12:31:47;5.85;;;2.15;;
56455;SDS011;42354;53.218;6.564;2023-04-24T12:34:20;6.82;;;1.50;;
56455;SDS011;42354;53.218;6.564;2023-04-24T12:36:47;5.07;;;1.50;;
56455;SDS011;42354;53.218;6.564;2023-04-24T12:39:19;6.35;;;1.42;;
56455;SDS011;42354;53.218;6.564;2023-04-24T12:41:54;5.82;;;1.50;;
56455;SDS011;42354;53.218;6.564;2023-04-24T12:44:34;6.03;;;1.40;;
56455;SDS011;42354;53.218;6.564;2023-04-24T12:47:00;4.35;;;1.20;;
56455;SDS011;42354;53.218;6.564;2023-04-24T12:49:26;6.35;;;1.10;;
56455;SDS011;42354;53.218;6.564;2023-04-24T12:51:52;4.28;;;0.90;;
56455;SDS011;42354;53.218;6.564;2023-04-24T12:54:19;5.70;;;1.00;;
56455;SDS011;42354;53.218;6.564;2023-04-24T12:56:44;3.72;;;1.10;;
56455;SDS011;42354;53.218;6.564;2023-04-24T12:59:10;4.88;;;0.93;;
56455;SDS011;42354;53.218;6.564;2023-04-24T13:01:35;4.85;;;1.00;;
56455;SDS011;42354;53.218;6.564;2023-04-24T13:04:01;6.82;;;1.10;;
56455;SDS011;42354;53.218;6.564;2023-04-24T13:06:27;10.57;;;1.83;;
56455;SDS011;42354;53.218;6.564;2023-04-24T13:08:53;3.78;;;0.82;;
56455;SDS011;42354;53.218;6.564;2023-04-24T13:11:22;6.50;;;1.30;;
56455;SDS011;42354;53.218;6.564;2023-04-24T13:13:48;7.75;;;1.65;;
56455;SDS011;42354;53.218;6.564;2023-04-24T13:16:13;7.00;;;1.70;;
56455;SDS011;42354;53.218;6.564;2023-04-24T13:18:40;10.88;;;1.30;;
56455;SDS011;42354;53.218;6.564;2023-04-24T13:21:06;5.18;;;1.38;;
56455;SDS011;42354;53.218;6.564;2023-04-24T13:23:31;6.40;;;1.25;;
56455;SDS011;42354;53.218;6.564;2023-04-24T13:25:56;10.23;;;1.67;;
56455;SDS011;42354;53.218;6.564;2023-04-24T13:28:23;7.28;;;1.48;;
56455;SDS011;42354;53.218;6.564;2023-04-24T13:30:49;9.02;;;1.73;;
56455;SDS011;42354;53.218;6.564;2023-04-24T13:33:15;6.80;;;1.52;;
56455;SDS011;42354;53.218;6.564;2023-04-24T13:35:40;7.18;;;1.30;;
56455;SDS011;42354;53.218;6.564;2023-04-24T13:38:06;5.50;;;1.10;;
56455;SDS011;42354;53.218;6.564;2023-04-24T13:40:31;6.80;;;1.02;;
56455;SDS011;42354;53.218;6.564;2023-04-24T13:42:57;4.18;;;0.63;;
56455;SDS011;42354;53.218;6.564;2023-04-24T13:45:22;5.20;;;0.70;;
56455;SDS011;42354;53.218;6.564;2023-04-24T13:47:48;4.70;;;0.80;;
56455;SDS011;42354;53.218;6.564;2023-04-24T13:50:13;2.85;;;0.80;;
56455;SDS011;42354;53.218;6.564;2023-04-24T13:52:40;2.72;;;0.80;;
56455;SDS011;42354;53.218;6.564;2023-04-24T13:55:05;4.82;;;1.70;;
56455;SDS011;42354;53.218;6.564;2023-04-24T13:57:31;5.47;;;0.88;;
56455;SDS011;42354;53.218;6.564;2023-04-24T13:59:57;3.42;;;1.15;;
56455;SDS011;42354;53.218;6.564;2023-04-24T14:02:26;3.85;;;1.00;;
56455;SDS011;42354;53.218;6.564;2023-04-24T14:04:52;9.85;;;1.83;;
56455;SDS011;42354;53.218;6.564;2023-04-24T14:07:17;9.32;;;1.90;;
56455;SDS011;42354;53.218;6.564;2023-04-24T14:09:42;7.63;;;1.77;;
56455;SDS011;42354;53.218;6.564;2023-04-24T14:12:09;8.77;;;2.25;;
56455;SDS011;42354;53.218;6.564;2023-04-24T14:14:36;12.13;;;3.03;;
56455;SDS011;42354;53.218;6.564;2023-04-24T14:17:01;14.80;;;3.30;;
56455;SDS011;42354;53.218;6.564;2023-04-24T14:19:26;8.15;;;2.40;;
56455;SDS011;42354;53.218;6.564;2023-04-24T14:21:52;14.20;;;3.42;;
56455;SDS011;42354;53.218;6.564;2023-04-24T14:24:17;14.68;;;3.00;;
56455;SDS011;42354;53.218;6.564;2023-04-24T14:26:44;15.77;;;3.53;;
56455;SDS011;42354;53.218;6.564;2023-04-24T14:29:10;15.95;;;4.13;;
56455;SDS011;42354;53.218;6.564;2023-04-24T14:31:35;12.25;;;2.75;;
56455;SDS011;42354;53.218;6.564;2023-04-24T14:34:00;13.38;;;3.13;;
56455;SDS011;42354;53.218;6.564;2023-04-24T14:36:26;14.15;;;3.40;;
56455;SDS011;42354;53.218;6.564;2023-04-24T14:38:51;14.30;;;2.83;;
56455;SDS011;42354;53.218;6.564;2023-04-24T14:41:16;15.38;;;3.15;;
56455;SDS011;42354;53.218;6.564;2023-04-24T14:43:42;13.15;;;3.15;;
56455;SDS011;42354;53.218;6.564;2023-04-24T14:46:07;15.77;;;3.40;;
56455;SDS011;42354;53.218;6.564;2023-04-24T14:48:32;9.32;;;2.70;;